Time;durP1;ratioP1;P1;durP2;ratioP2;P2;SDS_P1;SDS_P2;PMS_P1;PMS_P2;Temp;Humidity;BMP_temperature;BMP_pressure;BME280_temperature;BME280_humidity;BME280_pressure;Samples;Min_cycle;Max_cycle;Signal;HPM_P1;HPM_P2
2023/01/25 00:00:40;;;;;;;21.75;19.15;;;;;;;18.16;42.02;103622.97;5014993;28;20123;-70
2023/01/25 00:03:05;;;;;;;21.70;19.33;;;;;;;18.18;41.94;103629.03;5014727;28;20037;-70
2023/01/25 00:05:30;;;;;;;23.05;19.80;;;;;;;18.16;41.89;103622.97;5014206;28;20034;-69
2023/01/25 00:07:55;;;;;;;27.00;19.95;;;;;;;18.13;41.92;103616.00;5014920;28;20116;-69
2023/01/25 00:10:21;;;;;;;23.50;20.58;;;;;;;18.16;41.83;103621.16;5014440;28;20095;-71
2023/01/25 00:12:46;;;;;;;22.15;19.05;;;;;;;18.15;41.75;103624.75;5014563;28;20038;-71
2023/01/25 00:15:11;;;;;;;23.38;20.02;;;;;;;18.04;41.56;103603.16;5013888;28;20034;-69
2023/01/25 00:17:37;;;;;;;22.73;19.77;;;;;;;18.11;41.66;103618.69;5014473;28;20033;-71
2023/01/25 00:20:02;;;;;;;23.35;20.88;;;;;;;18.09;41.42;103617.91;5014375;28;20144;-70
2023/01/25 00:22:28;;;;;;;23.33;20.02;;;;;;;18.06;41.62;103609.25;5013951;28;20057;-72
2023/01/25 00:24:53;;;;;;;23.83;21.17;;;;;;;18.07;41.64;103617.13;5014419;28;20037;-70
2023/01/25 00:27:18;;;;;;;23.52;20.98;;;;;;;18.04;41.71;103611.94;5014951;28;20965;-70
2023/01/25 00:29:43;;;;;;;23.23;20.73;;;;;;;18.01;41.39;103613.81;5013876;28;20030;-72
2023/01/25 00:32:11;;;;;;;24.27;21.40;;;;;;;18.02;41.79;103618.19;5014102;28;21009;-71
2023/01/25 00:34:44;;;;;;;25.67;21.17;;;;;;;18.02;41.60;103618.19;5014016;28;20079;-70
2023/01/25 00:37:35;;;;;;;24.40;21.38;;;;;;;17.97;41.60;103613.09;5013275;28;20097;-70
2023/01/25 00:40:00;;;;;;;24.52;21.88;;;;;;;17.98;41.54;103608.69;5014759;28;20033;-71
2023/01/25 00:42:25;;;;;;;26.13;21.50;;;;;;;17.98;41.73;103611.31;5013634;28;20107;-70
2023/01/25 00:44:51;;;;;;;23.77;21.30;;;;;;;17.98;41.72;103611.31;5013661;28;20030;-70
2023/01/25 00:47:16;;;;;;;25.80;22.60;;;;;;;17.96;41.82;103606.09;5014172;28;20030;-70
2023/01/25 00:49:43;;;;;;;25.02;22.45;;;;;;;17.91;41.51;103605.38;5014601;28;20533;-70
2023/01/25 00:52:09;;;;;;;24.90;21.85;;;;;;;17.93;41.62;103603.56;5012728;28;20042;-70
2023/01/25 00:54:34;;;;;;;24.85;22.20;;;;;;;17.91;41.56;103608.03;5013448;28;20041;-73
2023/01/25 00:56:59;;;;;;;24.95;22.45;;;;;;;17.92;41.81;103607.13;5014276;28;20029;-70
2023/01/25 00:59:25;;;;;;;26.77;23.67;;;;;;;17.86;41.70;103597.59;5013912;28;20041;-70
2023/01/25 01:01:51;;;;;;;25.90;23.15;;;;;;;17.85;41.55;103598.53;5012674;28;20072;-70
2023/01/25 01:04:17;;;;;;;27.27;23.45;;;;;;;17.88;41.56;103602.84;5013824;28;20030;-70
2023/01/25 01:06:42;;;;;;;26.48;22.42;;;;;;;17.88;41.67;103602.84;5004417;28;20040;-70
2023/01/25 01:09:16;;;;;;;27.42;24.00;;;;;;;17.85;41.58;103590.63;5013957;28;20030;-70
2023/01/25 01:11:42;;;;;;;30.73;23.57;;;;;;;17.83;41.55;103591.59;5013528;28;20439;-71
2023/01/25 01:14:08;;;;;;;26.17;23.48;;;;;;;17.81;41.53;103583.72;5013389;28;20474;-70
2023/01/25 01:16:33;;;;;;;30.35;23.85;;;;;;;17.83;41.52;103595.09;5013715;28;20030;-70
2023/01/25 01:18:59;;;;;;;25.73;23.00;;;;;;;17.82;41.80;103593.38;5013153;28;20096;-70
2023/01/25 01:21:24;;;;;;;29.58;23.80;;;;;;;17.82;41.55;103595.16;5012932;28;20482;-71
2023/01/25 01:23:49;;;;;;;26.42;23.63;;;;;;;17.80;41.54;103594.34;5013125;28;20068;-69
2023/01/25 01:26:19;;;;;;;27.60;23.95;;;;;;;17.80;41.51;103591.69;5012364;28;20041;-70
2023/01/25 01:28:45;;;;;;;27.25;24.35;;;;;;;17.78;41.61;103586.47;5012813;28;20064;-70
2023/01/25 01:31:13;;;;;;;26.08;23.38;;;;;;;17.77;41.73;103593.53;5013321;28;20120;-70
2023/01/25 01:33:39;;;;;;;27.15;24.25;;;;;;;17.75;41.69;103590.09;5009624;28;20044;-69
2023/01/25 01:36:15;;;;;;;28.70;25.02;;;;;;;17.73;41.66;103591.06;5012232;28;20474;-70
2023/01/25 01:38:42;;;;;;;26.95;24.00;;;;;;;17.73;41.74;103585.78;5012764;28;20044;-70
2023/01/25 01:41:08;;;;;;;28.05;25.05;;;;;;;17.72;41.83;103592.84;5012470;28;20045;-70
2023/01/25 01:43:34;;;;;;;28.42;24.83;;;;;;;17.72;41.99;103590.22;5012335;28;20037;-68
2023/01/25 01:46:01;;;;;;;27.70;24.70;;;;;;;17.72;41.50;103595.50;5012838;28;20061;-70
2023/01/25 01:48:40;;;;;;;27.75;24.67;;;;;;;17.68;41.69;103593.03;5012138;28;20029;-69
2023/01/25 01:51:23;;;;;;;27.88;24.23;;;;;;;17.70;41.68;103594.66;5012499;28;20061;-70
2023/01/25 01:53:55;;;;;;;28.98;25.73;;;;;;;17.68;41.48;103599.16;5012411;28;20445;-70
2023/01/25 01:56:31;;;;;;;28.05;25.10;;;;;;;17.69;41.39;103595.59;5012039;28;20099;-70
2023/01/25 01:58:58;;;;;;;28.20;25.00;;;;;;;17.63;41.74;103587.91;5012027;28;20025;-70
2023/01/25 02:01:23;;;;;;;31.40;26.05;;;;;;;17.64;41.58;103594.91;5012279;28;20037;-69
2023/01/25 02:03:49;;;;;;;27.65;24.48;;;;;;;17.64;41.55;103586.13;5012229;28;20037;-72
2023/01/25 02:06:25;;;;;;;29.20;25.83;;;;;;;17.61;41.81;103586.22;5011644;28;20037;-71
2023/01/25 02:08:52;;;;;;;28.17;25.17;;;;;;;17.64;41.31;103591.41;5011902;28;20037;-70
2023/01/25 02:11:19;;;;;;;32.40;26.27;;;;;;;17.64;41.25;103597.56;5011845;28;20492;-70
2023/01/25 02:13:44;;;;;;;28.10;25.10;;;;;;;17.59;41.67;103584.53;5011690;28;20385;-70
2023/01/25 02:16:16;;;;;;;30.92;25.55;;;;;;;17.55;42.00;103579.41;5012140;28;20569;-70
2023/01/25 02:18:42;;;;;;;28.52;25.40;;;;;;;17.59;41.72;103589.81;5012938;28;20030;-71
2023/01/25 02:21:07;;;;;;;29.65;26.33;;;;;;;17.62;41.70;103587.97;5012717;28;20058;-70
2023/01/25 02:24:07;;;;;;;29.08;25.92;;;;;;;17.62;41.74;103593.22;5011946;28;20085;-70
2023/01/25 02:26:33;;;;;;;29.48;25.25;;;;;;;17.60;41.86;103585.38;5012189;28;20096;-71
2023/01/25 02:29:02;;;;;;;29.70;25.27;;;;;;;17.59;41.76;103588.91;5012214;28;20211;-71
2023/01/25 02:31:28;;;;;;;30.42;26.48;;;;;;;17.58;41.13;103582.78;5003393;28;20509;-70
2023/01/25 02:33:53;;;;;;;31.58;26.85;;;;;;;17.58;41.36;103579.31;5012434;28;20036;-70
2023/01/25 02:36:31;;;;;;;29.23;26.02;;;;;;;17.52;41.77;103569.81;5011756;28;20036;-73
2023/01/25 02:39:14;;;;;;;31.92;26.65;;;;;;;17.55;41.67;103572.34;5012412;28;20096;-71
2023/01/25 02:41:42;;;;;;;32.15;27.40;;;;;;;17.53;41.44;103565.41;5012373;28;20368;-72
2023/01/25 02:44:13;;;;;;;30.98;27.58;;;;;;;17.51;41.59;103570.72;5011671;28;20049;-70
2023/01/25 02:46:40;;;;;;;32.85;26.80;;;;;;;17.53;41.71;103560.13;5010686;28;20081;-71
2023/01/25 02:49:08;;;;;;;31.55;28.10;;;;;;;17.49;41.51;103553.25;5010146;28;20562;-70
2023/01/25 02:51:36;;;;;;;31.95;27.17;;;;;;;17.48;41.44;103546.25;5010994;28;20133;-70
2023/01/25 02:54:05;;;;;;;31.17;27.58;;;;;;;17.46;41.68;103546.31;5007847;28;20541;-70
2023/01/25 02:56:31;;;;;;;31.02;27.30;;;;;;;17.49;41.43;103562.03;5011203;28;20038;-70
2023/01/25 02:58:57;;;;;;;32.63;27.05;;;;;;;17.47;41.20;103552.47;5012322;28;20044;-70
2023/01/25 03:01:22;;;;;;;32.42;28.27;;;;;;;17.47;41.41;103558.59;5007678;28;20029;-71
2023/01/25 03:03:48;;;;;;;31.65;28.27;;;;;;;17.45;41.60;103551.63;5011127;28;20057;-71
2023/01/25 03:06:14;;;;;;;30.60;27.33;;;;;;;17.44;41.40;103549.94;5009358;28;20040;-71
2023/01/25 03:08:39;;;;;;;33.60;28.33;;;;;;;17.47;41.41;103557.75;5010514;28;20486;-72
2023/01/25 03:11:06;;;;;;;31.48;27.70;;;;;;;17.45;41.48;103549.00;5011969;28;20037;-71
2023/01/25 03:13:33;;;;;;;32.00;28.50;;;;;;;17.44;41.66;103550.78;5008663;28;20048;-70
2023/01/25 03:16:02;;;;;;;32.83;29.23;;;;;;;17.36;41.78;103535.25;5009339;28;20055;-70
2023/01/25 03:18:27;;;;;;;33.25;27.80;;;;;;;17.42;41.54;103542.09;5009887;28;20034;-70
2023/01/25 03:20:53;;;;;;;34.80;28.30;;;;;;;17.45;41.53;103541.09;5010099;28;20034;-70
2023/01/25 03:23:18;;;;;;;30.77;27.25;;;;;;;17.40;41.58;103531.59;5008776;28;20064;-72
2023/01/25 03:25:43;;;;;;;33.47;28.58;;;;;;;17.43;41.56;103537.66;5010197;28;20077;-70
2023/01/25 03:28:08;;;;;;;33.03;28.37;;;;;;;17.39;41.31;103535.13;5011537;28;20034;-70
2023/01/25 03:30:34;;;;;;;35.30;28.67;;;;;;;17.39;41.62;103529.84;5011342;28;20329;-70
2023/01/25 03:32:59;;;;;;;35.45;27.70;;;;;;;17.44;41.73;103521.78;5008551;28;20842;-70
2023/01/25 03:35:24;;;;;;;33.33;28.23;;;;;;;17.43;41.64;103520.06;5013490;28;20033;-70
2023/01/25 03:37:50;;;;;;;36.85;28.80;;;;;;;17.41;41.71;103509.56;5013346;28;20573;-70
2023/01/25 03:40:15;;;;;;;31.83;27.35;;;;;;;17.41;41.68;103514.00;5011842;28;20469;-71
2023/01/25 03:42:40;;;;;;;31.23;27.52;;;;;;;17.36;41.97;103503.59;5013634;28;20047;-70
2023/01/25 03:45:06;;;;;;;34.10;27.95;;;;;;;17.43;42.03;103511.28;5012800;28;20029;-70
2023/01/25 03:47:31;;;;;;;31.15;26.80;;;;;;;17.42;42.02;103513.09;5013670;28;20034;-70
2023/01/25 03:49:57;;;;;;;32.90;28.48;;;;;;;17.38;42.19;103507.03;5010013;28;20099;-70
2023/01/25 03:52:23;;;;;;;31.77;27.30;;;;;;;17.40;42.10;103507.88;5011995;28;20778;-69
2023/01/25 03:54:48;;;;;;;33.45;28.10;;;;;;;17.41;41.90;103516.63;5013932;28;20083;-70
2023/01/25 03:57:14;;;;;;;32.13;27.17;;;;;;;17.43;42.04;103513.94;5012303;28;20041;-71
2023/01/25 03:59:39;;;;;;;33.55;29.08;;;;;;;17.44;41.96;103518.31;5014590;28;20103;-70
2023/01/25 04:02:04;;;;;;;35.25;29.23;;;;;;;17.41;42.06;103521.91;5015138;28;20358;-69
2023/01/25 04:04:30;;;;;;;31.58;27.85;;;;;;;17.43;42.08;103527.97;5014042;28;20038;-70
2023/01/25 04:06:55;;;;;;;31.80;27.30;;;;;;;17.43;41.97;103514.78;5013762;28;20564;-71
2023/01/25 04:09:20;;;;;;;30.38;27.17;;;;;;;17.44;42.10;103516.50;5015481;28;20504;-70
2023/01/25 04:11:49;;;;;;;32.53;27.38;;;;;;;17.43;42.12;103513.94;5013334;28;20040;-70
2023/01/25 04:14:14;;;;;;;31.10;26.90;;;;;;;17.43;41.99;103514.78;5014947;28;20033;-70
2023/01/25 04:16:39;;;;;;;30.90;27.25;;;;;;;17.46;42.21;103519.09;5014046;28;20033;-70
2023/01/25 04:19:05;;;;;;;32.00;27.15;;;;;;;17.45;42.22;103514.72;5014423;28;20461;-70
2023/01/25 04:21:30;;;;;;;29.70;25.83;;;;;;;17.44;42.25;103511.25;5014210;28;20037;-70
2023/01/25 04:23:55;;;;;;;32.38;26.98;;;;;;;17.35;42.25;103491.31;5012573;28;20133;-70
2023/01/25 04:26:20;;;;;;;31.40;27.08;;;;;;;17.44;42.52;103502.47;5013466;28;20051;-70
2023/01/25 04:28:46;;;;;;;32.45;27.30;;;;;;;17.45;41.94;103502.44;5015898;28;20030;-70
2023/01/25 04:31:11;;;;;;;31.80;27.02;;;;;;;17.43;42.12;103503.38;5012559;28;20037;-70
2023/01/25 04:33:36;;;;;;;31.38;27.25;;;;;;;17.44;42.25;103500.69;5013103;28;20033;-69
2023/01/25 04:36:02;;;;;;;28.98;25.75;;;;;;;17.45;42.39;103499.78;5017718;28;20088;-70
2023/01/25 04:38:27;;;;;;;30.45;26.17;;;;;;;17.44;42.10;103505.97;5019060;28;20117;-70
2023/01/25 04:40:53;;;;;;;34.65;27.55;;;;;;;17.47;42.11;103508.50;5019978;28;20061;-68
2023/01/25 04:43:20;;;;;;;30.85;26.60;;;;;;;17.45;42.45;103507.69;5018198;28;20030;-68
2023/01/25 04:45:46;;;;;;;29.40;26.00;;;;;;;17.47;42.25;103503.22;5017370;28;20500;-68
2023/01/25 04:48:12;;;;;;;31.00;26.15;;;;;;;17.48;41.88;103501.44;5016791;28;20069;-69
2023/01/25 04:50:40;;;;;;;29.90;26.58;;;;;;;17.44;41.65;103494.56;5016408;28;20084;-68
2023/01/25 04:53:06;;;;;;;30.63;26.00;;;;;;;17.48;42.09;103496.16;5018571;28;20021;-70
2023/01/25 04:55:33;;;;;;;29.83;24.55;;;;;;;17.47;42.02;103494.47;5016201;28;20037;-69
2023/01/25 04:57:58;;;;;;;29.33;26.00;;;;;;;17.45;42.06;103489.25;5012708;28;20057;-71
2023/01/25 05:00:24;;;;;;;28.65;25.17;;;;;;;17.47;42.10;103486.56;5012481;28;20088;-70
2023/01/25 05:02:49;;;;;;;30.77;25.42;;;;;;;17.48;42.27;103489.13;5010499;28;20402;-70
2023/01/25 05:05:15;;;;;;;32.95;25.85;;;;;;;17.48;42.03;103488.25;5013118;28;20034;-70
2023/01/25 05:07:40;;;;;;;30.15;25.55;;;;;;;17.46;41.89;103474.28;5014292;28;20921;-72
2023/01/25 05:10:07;;;;;;;29.27;25.83;;;;;;;17.46;42.16;103469.84;5014470;28;20481;-70
2023/01/25 05:12:32;;;;;;;28.73;25.05;;;;;;;17.44;42.08;103473.47;5003437;28;20029;-71
2023/01/25 05:14:58;;;;;;;30.15;25.10;;;;;;;17.44;42.06;103473.47;5013638;28;20030;-73
2023/01/25 05:17:23;;;;;;;27.33;24.05;;;;;;;17.47;42.18;103476.84;5011028;28;20045;-71
2023/01/25 05:19:48;;;;;;;30.38;24.52;;;;;;;17.44;41.84;103466.41;5013574;28;20033;-72
2023/01/25 05:22:15;;;;;;;28.77;25.10;;;;;;;17.46;41.98;103472.50;5013319;28;20207;-70
2023/01/25 05:24:40;;;;;;;27.75;24.00;;;;;;;17.47;42.00;103470.72;5014223;28;20034;-70
2023/01/25 05:27:08;;;;;;;28.52;23.75;;;;;;;17.43;42.05;103466.47;5013600;28;20493;-70
2023/01/25 05:29:39;;;;;;;29.60;25.10;;;;;;;17.44;42.06;103465.56;5013227;28;20144;-70
2023/01/25 05:32:13;;;;;;;29.17;24.38;;;;;;;17.42;42.24;103460.34;5011833;28;20029;-70
2023/01/25 05:34:39;;;;;;;25.75;21.80;;;;;;;17.39;41.65;103456.03;5003415;28;20087;-70
2023/01/25 05:37:06;;;;;;;23.42;20.92;;;;;;;17.46;41.40;103461.09;5011622;28;20254;-68
2023/01/25 05:39:32;;;;;;;22.20;19.70;;;;;;;17.50;40.71;103467.94;5012561;28;20557;-70
2023/01/25 05:41:57;;;;;;;23.83;20.60;;;;;;;17.49;40.77;103459.19;5012988;28;20109;-69
2023/01/25 05:44:23;;;;;;;22.67;19.00;;;;;;;17.58;40.61;103466.78;5013242;28;20064;-69
2023/01/25 05:46:49;;;;;;;21.75;19.35;;;;;;;17.63;40.54;103465.75;5012125;28;20041;-70
2023/01/25 05:49:15;;;;;;;24.92;19.48;;;;;;;17.66;40.61;103460.34;5012519;28;20036;-70
2023/01/25 05:51:41;;;;;;;22.40;19.48;;;;;;;17.70;40.51;103461.94;5011523;28;20049;-70
2023/01/25 05:54:08;;;;;;;22.50;19.15;;;;;;;17.73;40.23;103453.91;5003093;28;20030;-72
2023/01/25 05:56:34;;;;;;;23.17;18.90;;;;;;;17.79;40.08;103460.75;5011445;28;20038;-71
2023/01/25 05:59:00;;;;;;;20.98;18.20;;;;;;;17.83;40.35;103459.69;5012663;28;20052;-70
2023/01/25 06:01:26;;;;;;;21.55;18.92;;;;;;;17.82;40.15;103453.56;5012046;28;20076;-70
2023/01/25 06:03:52;;;;;;;21.38;19.02;;;;;;;17.90;40.25;103464.69;5010186;28;20044;-69
2023/01/25 06:06:18;;;;;;;24.58;18.83;;;;;;;17.89;40.17;103456.84;5012114;28;20029;-70
2023/01/25 06:08:44;;;;;;;22.08;17.90;;;;;;;17.93;40.47;103456.69;5012263;28;20137;-69
2023/01/25 06:11:11;;;;;;;21.63;18.15;;;;;;;17.92;40.24;103446.19;5002231;28;20048;-69
2023/01/25 06:13:37;;;;;;;21.45;17.58;;;;;;;17.99;40.02;103459.97;5011523;28;20092;-70
2023/01/25 06:16:03;;;;;;;20.70;17.45;;;;;;;17.97;39.97;103453.91;5011433;28;20038;-69
2023/01/25 06:18:30;;;;;;;20.65;17.50;;;;;;;17.98;40.46;103456.50;5011919;28;20112;-70
2023/01/25 06:20:56;;;;;;;22.17;18.00;;;;;;;18.00;39.90;103453.78;5012114;28;20034;-69
2023/01/25 06:23:22;;;;;;;20.92;18.08;;;;;;;18.04;40.09;103464.16;5010929;28;20048;-71
2023/01/25 06:25:47;;;;;;;19.52;17.17;;;;;;;18.03;39.84;103462.44;5011824;28;20026;-71
2023/01/25 06:28:12;;;;;;;19.50;17.42;;;;;;;18.02;40.13;103459.88;5009543;28;20040;-71
2023/01/25 06:30:38;;;;;;;20.27;17.42;;;;;;;18.06;40.03;103462.31;5011623;28;20029;-71
2023/01/25 06:33:03;;;;;;;19.77;16.73;;;;;;;18.07;40.07;103458.78;5011324;28;20747;-70
2023/01/25 06:35:31;;;;;;;19.75;17.50;;;;;;;18.04;39.77;103452.72;5012535;28;20057;-71
2023/01/25 06:37:57;;;;;;;18.08;16.15;;;;;;;18.07;40.16;103457.91;5011752;28;20144;-71
2023/01/25 06:40:24;;;;;;;20.10;17.55;;;;;;;18.05;39.90;103455.31;5011871;28;20091;-71
2023/01/25 06:42:49;;;;;;;20.20;17.33;;;;;;;18.04;40.04;103450.97;5010335;28;20470;-71
2023/01/25 06:45:15;;;;;;;20.87;16.37;;;;;;;18.05;39.91;103455.31;5012238;28;20045;-71
2023/01/25 06:47:40;;;;;;;18.63;16.45;;;;;;;18.05;39.85;103446.56;5010084;28;20635;-71
2023/01/25 06:50:06;;;;;;;20.83;15.88;;;;;;;18.06;39.88;103453.56;5010659;28;20128;-70
2023/01/25 06:52:35;;;;;;;20.00;15.63;;;;;;;18.07;39.89;103458.78;5009877;28;20061;-70
2023/01/25 06:55:05;;;;;;;18.20;16.33;;;;;;;18.05;39.96;103449.19;5008678;28;20040;-72
2023/01/25 06:57:31;;;;;;;18.17;15.13;;;;;;;17.99;39.92;103447.66;5010594;28;20091;-72
2023/01/25 06:59:56;;;;;;;18.75;15.73;;;;;;;18.08;39.95;103454.34;5012575;28;20453;-73
2023/01/25 07:02:21;;;;;;;17.50;15.48;;;;;;;18.05;39.77;103444.75;5010074;28;20069;-73
2023/01/25 07:04:47;;;;;;;17.57;15.67;;;;;;;18.08;39.84;103449.91;5011014;28;20037;-74
2023/01/25 07:07:13;;;;;;;17.67;15.07;;;;;;;18.08;40.04;103449.91;5011467;28;20346;-74
2023/01/25 07:09:38;;;;;;;19.35;15.38;;;;;;;18.07;40.10;103447.34;5014820;28;20865;-71
2023/01/25 07:12:04;;;;;;;18.15;14.80;;;;;;;18.09;39.82;103446.38;5015084;28;20124;-72
2023/01/25 07:14:30;;;;;;;18.05;14.98;;;;;;;18.04;39.82;103443.06;5015246;28;20152;-73
2023/01/25 07:16:56;;;;;;;17.73;14.18;;;;;;;18.04;39.87;103445.69;5015967;28;20422;-72
2023/01/25 07:19:21;;;;;;;16.48;14.43;;;;;;;18.10;39.93;103457.78;5016196;28;20033;-71
2023/01/25 07:21:48;;;;;;;15.90;13.93;;;;;;;18.08;39.88;103455.19;5015215;28;20041;-73
2023/01/25 07:24:16;;;;;;;16.00;14.00;;;;;;;18.06;39.76;103450.91;5015527;28;20040;-72
2023/01/25 07:26:41;;;;;;;16.33;13.77;;;;;;;18.09;39.92;103453.44;5014769;28;20034;-71
2023/01/25 07:29:10;;;;;;;15.05;13.43;;;;;;;18.07;40.01;103458.78;5014633;28;20033;-70
2023/01/25 07:31:35;;;;;;;14.68;13.13;;;;;;;18.08;40.00;103455.19;5014044;28;20034;-71
2023/01/25 07:34:01;;;;;;;15.60;13.77;;;;;;;18.10;39.95;103445.47;5014831;28;20484;-72
2023/01/25 07:36:26;;;;;;;16.05;13.52;;;;;;;18.09;39.99;103440.25;5021997;28;20036;-72
2023/01/25 07:38:56;;;;;;;16.92;14.15;;;;;;;18.05;39.90;103439.47;5026862;28;20044;-69
2023/01/25 07:41:22;;;;;;;17.35;13.65;;;;;;;18.10;39.77;103445.47;5027549;28;20041;-71
2023/01/25 07:43:47;;;;;;;18.23;13.50;;;;;;;18.09;39.87;103443.72;5027464;28;20083;-70
2023/01/25 07:46:14;;;;;;;15.55;12.95;;;;;;;18.07;39.87;103437.66;5021969;28;20029;-70
2023/01/25 07:48:44;;;;;;;17.98;13.00;;;;;;;18.09;40.09;103434.97;5015360;28;20501;-74
2023/01/25 07:51:43;;;;;;;15.43;13.82;;;;;;;18.10;39.66;103434.03;5015161;28;20136;-72
2023/01/25 07:54:03;;;;;;;14.70;12.15;;;;;;;18.12;39.83;103430.41;5017820;28;20157;-75
2023/01/25 07:56:31;;;;;;;16.88;13.32;;;;;;;18.14;39.96;103438.28;5014943;28;20033;-71
2023/01/25 07:58:58;;;;;;;15.60;12.73;;;;;;;18.15;40.18;103432.09;5013555;28;20045;-70
2023/01/25 08:01:26;;;;;;;14.93;12.82;;;;;;;18.13;40.19;103424.22;5013128;28;20481;-70
2023/01/25 08:03:54;;;;;;;16.95;13.00;;;;;;;18.14;40.58;103419.78;5028758;28;20460;-70
2023/01/25 08:06:34;;;;;;;13.75;12.25;;;;;;;18.17;40.75;103432.88;5012710;28;20052;-70
2023/01/25 08:09:01;;;;;;;14.82;12.40;;;;;;;18.20;40.22;103435.38;5013759;28;20116;-70
2023/01/25 08:11:29;;;;;;;15.32;12.30;;;;;;;18.21;40.59;103426.53;5013764;28;20602;-71
2023/01/25 08:13:54;;;;;;;15.07;12.35;;;;;;;18.22;40.62;103427.41;5013869;28;20033;-71
2023/01/25 08:16:22;;;;;;;14.80;13.07;;;;;;;18.17;40.53;103414.38;5013451;28;20045;-74
2023/01/25 08:18:48;;;;;;;14.95;12.77;;;;;;;18.19;40.66;103420.47;5012787;28;20136;-73
2023/01/25 08:21:13;;;;;;;15.38;13.43;;;;;;;18.22;40.76;103424.75;5011111;28;20053;-73
2023/01/25 08:23:39;;;;;;;16.80;13.07;;;;;;;18.20;40.76;103423.94;5014413;28;20512;-73
2023/01/25 08:26:06;;;;;;;15.10;13.23;;;;;;;18.22;40.59;103422.13;5012989;28;20270;-68
2023/01/25 08:28:32;;;;;;;15.75;13.95;;;;;;;18.22;40.62;103419.47;5012361;28;20038;-74
2023/01/25 08:31:15;;;;;;;17.17;14.02;;;;;;;18.20;40.66;103416.91;5015177;28;20029;-74
2023/01/25 08:33:45;;;;;;;17.10;13.50;;;;;;;18.22;40.54;103417.69;5016331;28;20115;-73
2023/01/25 08:36:13;;;;;;;15.05;13.10;;;;;;;18.22;40.58;103414.22;5014105;28;20034;-73
2023/01/25 08:38:38;;;;;;;14.93;12.88;;;;;;;18.21;40.55;103415.97;5013984;28;20052;-75
2023/01/25 08:41:15;;;;;;;14.90;11.95;;;;;;;18.17;40.66;103403.00;5013288;28;20109;-75
2023/01/25 08:43:42;;;;;;;15.77;12.45;;;;;;;18.19;40.83;103403.78;5013517;28;20105;-74
2023/01/25 08:46:07;;;;;;;13.93;11.88;;;;;;;18.21;40.98;103409.84;5013522;28;20190;-75
2023/01/25 08:48:33;;;;;;;16.33;12.52;;;;;;;18.22;40.96;103411.56;5012986;28;20541;-73
2023/01/25 08:50:59;;;;;;;14.25;12.45;;;;;;;18.26;40.94;103418.41;5012976;28;20089;-77
2023/01/25 08:53:27;;;;;;;13.48;12.07;;;;;;;18.26;41.17;103414.03;5011916;28;20034;-72
2023/01/25 08:55:52;;;;;;;14.40;12.50;;;;;;;18.29;41.07;103418.28;5011028;28;20033;-73
2023/01/25 08:58:20;;;;;;;15.10;12.73;;;;;;;18.31;40.99;103419.13;5012012;28;20037;-73
2023/01/25 09:00:46;;;;;;;16.77;12.60;;;;;;;18.29;40.95;103415.66;5012292;28;20474;-74
2023/01/25 09:03:11;;;;;;;15.70;13.02;;;;;;;18.22;40.78;103401.84;5012117;28;20056;-74
2023/01/25 09:05:38;;;;;;;15.90;13.85;;;;;;;18.30;40.87;103401.53;5012073;28;20033;-74
2023/01/25 09:08:05;;;;;;;16.40;13.52;;;;;;;18.29;40.52;103399.81;5012816;28;20491;-76
2023/01/25 09:10:31;;;;;;;16.25;13.70;;;;;;;18.30;40.89;103399.75;5012438;28;20061;-75
2023/01/25 09:12:57;;;;;;;14.75;12.75;;;;;;;18.31;40.72;103398.00;5012500;28;20175;-70
2023/01/25 09:15:23;;;;;;;15.95;12.45;;;;;;;18.29;40.72;103395.41;5011403;28;20041;-71
2023/01/25 09:17:53;;;;;;;14.73;13.02;;;;;;;18.29;40.72;103391.91;5012107;28;20037;-72
2023/01/25 09:20:19;;;;;;;15.98;13.27;;;;;;;18.31;40.63;103395.34;5011568;28;20030;-73
2023/01/25 09:22:44;;;;;;;15.52;13.27;;;;;;;18.31;40.66;103393.56;5009711;28;20083;-73
2023/01/25 09:25:10;;;;;;;16.20;14.07;;;;;;;18.31;40.72;103390.91;5013386;28;20030;-73
2023/01/25 09:27:36;;;;;;;16.02;13.80;;;;;;;18.26;40.71;103378.81;5012141;28;20037;-73
2023/01/25 09:30:01;;;;;;;17.52;14.77;;;;;;;18.26;40.84;103389.38;5011392;28;20048;-74
2023/01/25 09:32:26;;;;;;;15.85;14.15;;;;;;;18.29;40.80;103391.91;5009479;28;20471;-72
2023/01/25 09:34:51;;;;;;;17.67;13.68;;;;;;;18.25;40.60;103380.63;5012969;28;20043;-70
2023/01/25 09:37:17;;;;;;;16.58;14.50;;;;;;;18.23;40.88;103389.50;5011813;28;20474;-71
2023/01/25 09:39:44;;;;;;;16.25;14.13;;;;;;;18.26;40.59;103392.03;5011048;28;20033;-72
2023/01/25 09:42:25;;;;;;;19.63;14.57;;;;;;;18.24;40.69;103391.22;5011594;28;20465;-74
2023/01/25 09:45:08;;;;;;;20.23;15.07;;;;;;;18.22;40.71;103387.81;5019267;28;20044;-73
2023/01/25 09:47:54;;;;;;;15.70;13.55;;;;;;;18.19;40.59;103383.50;5008136;28;20033;-72
2023/01/25 09:50:32;;;;;;;18.00;13.77;;;;;;;18.18;40.86;103379.13;5012504;28;20029;-72
2023/01/25 09:53:26;;;;;;;16.58;13.98;;;;;;;18.22;40.64;103387.81;5013875;28;20042;-73
2023/01/25 09:55:57;;;;;;;17.67;14.43;;;;;;;18.24;40.71;103386.81;5006425;28;20099;-73
2023/01/25 09:58:32;;;;;;;15.95;13.80;;;;;;;18.25;41.03;103385.03;5011387;28;20029;-74
2023/01/25 10:01:22;;;;;;;16.40;14.65;;;;;;;18.28;41.08;103384.91;5010163;28;20036;-73
2023/01/25 10:04:34;;;;;;;16.85;14.70;;;;;;;18.28;41.48;103390.19;5013876;28;20041;-75
2023/01/25 10:07:16;;;;;;;20.25;14.80;;;;;;;18.24;41.23;103380.69;5011550;28;20039;-76
2023/01/25 10:09:54;;;;;;;16.20;14.27;;;;;;;18.25;41.25;103385.03;5011376;28;20045;-73
2023/01/25 10:12:24;;;;;;;17.90;14.65;;;;;;;18.20;41.25;103379.06;5012840;28;20034;-72
2023/01/25 10:14:51;;;;;;;19.75;14.77;;;;;;;18.22;41.30;103378.09;5021689;28;20033;-73
2023/01/25 10:17:21;;;;;;;18.80;15.73;;;;;;;18.23;41.33;103364.00;5020586;28;20036;-71
2023/01/25 10:20:08;;;;;;;18.55;15.43;;;;;;;18.20;40.94;103363.25;5019692;28;20121;-72
2023/01/25 10:22:49;;;;;;;17.17;13.93;;;;;;;18.22;40.93;103367.53;5012344;28;20026;-72
2023/01/25 10:25:20;;;;;;;18.85;14.65;;;;;;;18.15;40.96;103354.66;5012528;28;20037;-72
2023/01/25 10:27:56;;;;;;;17.38;14.73;;;;;;;18.23;41.05;103368.38;5012150;28;20046;-73
2023/01/25 10:30:46;;;;;;;18.90;15.45;;;;;;;18.20;40.70;103360.59;5012846;28;20044;-74
2023/01/25 10:33:18;;;;;;;17.38;15.27;;;;;;;18.20;40.81;103360.59;5013228;28;20108;-76
2023/01/25 10:35:46;;;;;;;22.67;15.90;;;;;;;18.21;40.82;103360.53;5012190;28;20061;-73
2023/01/25 10:38:20;;;;;;;19.88;14.95;;;;;;;18.21;40.73;103360.53;5013134;28;20069;-74
2023/01/25 10:40:53;;;;;;;22.00;15.27;;;;;;;18.20;40.51;103343.00;5013138;28;20032;-71
2023/01/25 10:43:22;;;;;;;16.80;14.27;;;;;;;18.19;40.46;103335.16;5003046;28;20429;-71
2023/01/25 10:45:49;;;;;;;21.45;15.52;;;;;;;18.21;40.45;103328.00;5011305;28;20114;-71
2023/01/25 10:48:22;;;;;;;19.58;15.65;;;;;;;18.16;40.59;103319.44;5010206;28;20385;-71
2023/01/25 10:50:52;;;;;;;19.85;15.60;;;;;;;18.13;40.63;103308.09;5007233;28;20045;-71
2023/01/25 10:53:32;;;;;;;18.80;15.40;;;;;;;18.21;40.52;103313.03;5010191;28;20053;-70
2023/01/25 10:56:09;;;;;;;18.10;15.75;;;;;;;18.21;40.46;103306.91;5010345;28;20038;-70
2023/01/25 10:58:45;;;;;;;18.77;14.85;;;;;;;18.18;40.78;103301.75;5009473;28;20140;-71
2023/01/25 11:01:31;;;;;;;17.63;14.55;;;;;;;18.15;40.45;103294.84;5009033;28;20576;-72
2023/01/25 11:03:58;;;;;;;17.40;15.40;;;;;;;18.19;40.65;103290.28;5010610;28;20076;-71
2023/01/25 11:06:33;;;;;;;19.20;14.05;;;;;;;18.19;40.49;103292.91;5010417;28;20026;-71
2023/01/25 11:08:58;;;;;;;18.08;15.27;;;;;;;18.20;40.65;103289.34;5011895;28;20807;-70
2023/01/25 11:11:31;;;;;;;18.55;16.15;;;;;;;18.15;40.53;103279.00;5008613;28;20047;-70
2023/01/25 11:13:56;;;;;;;18.52;15.23;;;;;;;18.20;40.44;103276.13;5011014;28;20034;-70